Flight Track Log - Related Links

Times and Time Zones

All times are in EDT time to prevent confusion due to time zone crossing. See the UPS37 flight status page for this flight to view local times or setup timezone preferences in your user account.

Time Position Orientation Groundspeed Altitude Reporting Facility
EDT Latitude Longitude Course Direction KTS MPH feet Rate Location/Type
Sun 04:37:15 AM -33.9310 151.1690 278° West 3 3  Level FlightAware ADS-B
Sun 04:38:00 AM -33.9320 151.1690 180° South 1 1 97 Level FlightAware ADS-B
Sun 04:40:00 AM -33.7529 150.9589 316° Northwest  Level FlightAware Approximate
Sun 04:41:00 AM -33.6633 150.8541 316° Northwest  Level FlightAware Approximate
Sun 04:42:00 AM -33.5735 150.7496 316° Northwest  Level FlightAware Approximate
Sun 04:42:35 AM -33.9310 151.1690 316° Northwest 5 6  Level FlightAware ADS-B
Sun 04:43:25 AM -33.9300 151.1690 360° North 8 9 200 Level FlightAware ADS-B
Sun 04:43:40 AM -33.9300 151.1700 90° East 3 3 240 Level FlightAware ADS-B
Sun 04:46:00 AM -33.7254 150.9288 316° Northwest  Level FlightAware Approximate
Sun 04:46:20 AM -33.9300 151.1720 316° Northwest 5 6  Level FlightAware ADS-B
Sun 04:47:10 AM -33.9390 151.1740 170° South 140 161 800 Level FlightAware ADS-B
Sun 04:47:35 AM -33.9570 151.1780 170° South 148 170 1,000 2,727 Climbing FlightAware ADS-B
Sun 04:48:05 AM -33.9790 151.1730 191° South 168 193 2,500 2,500 Climbing FlightAware ADS-B
Sun 04:48:35 AM -34.0040 151.1690 188° South 201 231 3,500 1,700 Climbing FlightAware ADS-B
Sun 04:49:05 AM -34.0360 151.1640 187° South 256 295 4,200 2,000 Climbing FlightAware ADS-B
Sun 04:49:20 AM -34.0540 151.1610 188° South 262 302 5,000 3,450 Climbing FlightAware ADS-B
Sun 04:49:45 AM -34.0820 151.1560 188° South 271 312 6,500 3,429 Climbing FlightAware ADS-B
Sun 04:49:55 AM -34.0950 151.1540 188° South 277 319 7,000 3,907 Climbing FlightAware ADS-B
Sun 04:50:28 AM -34.1390 151.1396 188° South 285 328 9,300 3,522 Climbing Aus ATC (RADAR)
Sun 04:50:41 AM -34.1500 151.1240 204° Southwest 301 346 9,700 2,000 Climbing FlightAware ADS-B
Sun 04:50:58 AM -34.1600 151.0950 247° West 320 368 10,300 1,343 Climbing FlightAware ADS-B
Sun 04:51:48 AM -34.1620 151.0420 267° West 351 404 11,200 1,479 Climbing FlightAware ADS-B
Sun 04:52:11 AM -34.1300 150.9810 302° West 382 440 12,100 3,261 Climbing FlightAware ADS-B
Sun 04:52:34 AM -34.0840 150.9590 338° Northwest 382 440 13,700 3,211 Climbing FlightAware ADS-B
Sun 04:53:22 AM -34.0000 150.9360 347° North 398 458 15,900 2,819 Climbing FlightAware ADS-B
Sun 04:53:57 AM -33.9370 150.9130 347° North 403 464 17,600 3,600 Climbing FlightAware ADS-B
Sun 04:54:02 AM -33.9210 150.9071 347° North 386 444 18,300 2,857 Climbing Aus ATC (RADAR)
Sun 04:54:39 AM -33.8620 150.8850 343° North 408 470 19,600 2,800 Climbing FlightAware ADS-B
Sun 04:55:17 AM -33.7854 150.8533 343° North 398 458 21,800 2,341 Climbing Aus ATC (RADAR)
Sun 04:55:20 AM -33.7930 150.8570 343° North 415 478 21,200 1,592 Descending FlightAware ADS-B
Sun 04:56:06 AM -33.7050 150.8200 341° North 423 487 23,100 2,805 Climbing FlightAware ADS-B
Sun 04:56:37 AM -33.6384 150.7924 341° North 405 466 24,800 2,270 Climbing Aus ATC (RADAR)
Sun 04:56:43 AM -33.6320 150.7890 341° North 431 496 24,500 1,200 Descending FlightAware ADS-B
Sun 04:57:17 AM -33.5670 150.7436 341° North 431 496 25,600 1,174 Climbing Aus ATC (RADAR)
Sun 04:57:29 AM -33.5520 150.7280 341° North 466 536 25,400 1,472 Descending FlightAware ADS-B
Sun 04:58:10 AM -33.4880 150.6520 341° North 473 544 26,900 2,791 Climbing FlightAware ADS-B
Sun 04:58:12 AM -33.4807 150.6430 341° North 457 526 27,400 2,757 Climbing Aus ATC (RADAR)
Sun 04:58:47 AM -33.4295 150.5815 341° North 462 532 28,600 1,535 Climbing Aus ATC (RADAR)
Sun 04:58:55 AM -33.4180 150.5680 341° North 475 547 28,500 2,400 Descending FlightAware ADS-B
Sun 04:59:37 AM -33.3481 150.4875 341° North 456 525 30,600 2,267 Climbing Aus ATC (RADAR)
Sun 04:59:40 AM -33.3480 150.4880 341° North 471 542 30,200 2,211 Descending FlightAware ADS-B
Sun 05:00:15 AM -33.2960 150.4290 317° Northwest 452 520 32,000 2,519 Climbing FlightAware ADS-B
Sun 05:01:01 AM -33.2270 150.3490 316° Northwest 446 513 33,600 1,765 Climbing FlightAware ADS-B
Sun 05:01:40 AM -33.1700 150.2830 316° Northwest 445 512 34,500 1,390 Climbing FlightAware ADS-B
Sun 05:02:23 AM -33.1040 150.2080 316° Northwest 444 511 35,500 1,111 Climbing FlightAware ADS-B
Sun 05:03:01 AM -33.0510 150.1480 316° Northwest 445 512 36,000 1,385 Climbing FlightAware ADS-B
Sun 05:03:02 AM -33.0448 150.1400 316° Northwest 439 505 36,400 667 Climbing Aus ATC (RADAR)
Sun 05:03:37 AM -32.9909 150.0788 316° Northwest 427 491 36,400 -533 Level Aus ATC (RADAR)
Sun 05:03:47 AM -32.9840 150.0720 316° Northwest 434 499 36,000  Descending FlightAware ADS-B
Sun 05:04:27 AM -32.9182 149.9962 316° Northwest 425 489 36,400  Climbing Aus ATC (RADAR)
Sun 05:04:29 AM -32.9180 149.9960 316° Northwest 432 497 36,000  Descending FlightAware ADS-B
Sun 05:05:02 AM -32.8699 149.9408 316° Northwest 434 499 36,400  Climbing Aus ATC (RADAR)
Sun 05:05:14 AM -32.8570 149.9270 316° Northwest 440 506 36,000  Descending FlightAware ADS-B
Sun 05:05:52 AM -32.7935 149.8549 316° Northwest 428 493 36,400  Climbing Aus ATC (RADAR)
Sun 05:05:55 AM -32.7900 149.8520 316° Northwest 438 504 36,000 -632 Descending FlightAware ADS-B
Sun 05:06:30 AM -32.7390 149.7950 317° Northwest 431 496 36,000  Level FlightAware ADS-B
Sun 05:07:19 AM -32.6680 149.7140 316° Northwest 430 495 36,000  Level FlightAware ADS-B
Sun 05:07:55 AM -32.6130 149.6530 317° Northwest 427 491 36,000 220 Level FlightAware ADS-B
Sun 05:08:41 AM -32.5410 149.5811 317° Northwest 430 495 36,300  Climbing Aus ATC (RADAR)
Sun 05:08:45 AM -32.5370 149.5800 317° Northwest 441 507 36,000 -450 Descending FlightAware ADS-B
Sun 05:09:21 AM -32.4710 149.5400 333° Northwest 435 501 36,000 234 Level FlightAware ADS-B
Sun 05:10:02 AM -32.3981 149.4965 333° Northwest 442 509 36,300  Climbing Aus ATC (RADAR)
Sun 05:10:07 AM -32.3910 149.4920 333° Northwest 436 502 36,000 -383 Descending FlightAware ADS-B
Sun 05:10:49 AM -32.3080 149.4430 333° Northwest 438 504 36,000  Level FlightAware ADS-B
Sun 05:11:31 AM -32.2330 149.3990 334° Northwest 438 504 36,000 73 Level FlightAware ADS-B
Sun 05:12:11 AM -32.1650 149.3590 334° Northwest 446 513 36,100  Climbing FlightAware ADS-B
Sun 05:12:51 AM -32.0840 149.3110 333° Northwest 446 513 36,000 141 Descending FlightAware ADS-B
Sun 05:13:36 AM -31.9981 149.2604 333° Northwest 439 505 36,300 103 Climbing Aus ATC (RADAR)
Sun 05:13:49 AM -31.9760 149.2480 333° Northwest 447 514 36,100  Descending FlightAware ADS-B
Sun 05:14:26 AM -31.9059 149.2054 333° Northwest 438 504 36,300 -146 Climbing Aus ATC (RADAR)
Sun 05:14:30 AM -31.9000 149.2020 333° Northwest 446 513 36,000 -367 Descending FlightAware ADS-B
Sun 05:15:15 AM -31.8180 149.1540 333° Northwest 446 513 36,000 391 Level FlightAware ADS-B
Sun 05:15:16 AM -31.8132 149.1514 333° Northwest 439 505 36,300  Climbing Aus ATC (RADAR)
Sun 05:15:54 AM -31.7440 149.1110 334° Northwest 446 513 36,000 -228 Descending FlightAware ADS-B
Sun 05:16:35 AM -31.6690 149.0680 334° Northwest 446 513 36,000  Level FlightAware ADS-B
Sun 05:17:19 AM -31.5870 149.0190 333° Northwest 438 504 36,000 222 Level FlightAware ADS-B
Sun 05:17:56 AM -31.5211 148.9806 333° Northwest 446 513 36,300  Climbing Aus ATC (RADAR)
Sun 05:18:00 AM -31.5120 148.9760 333° Northwest 446 513 36,000 -261 Descending FlightAware ADS-B
Sun 05:18:42 AM -31.4390 148.9340 333° Northwest 445 512 36,100 391 Climbing FlightAware ADS-B
Sun 05:18:46 AM -31.4285 148.9274 333° Northwest 446 513 36,300 -140 Climbing Aus ATC (RADAR)
Sun 05:19:25 AM -31.3540 148.8840 333° Northwest 437 503 36,000 -214 Descending FlightAware ADS-B
Sun 05:20:10 AM -31.2720 148.8370 334° Northwest 445 512 36,000  Level FlightAware ADS-B
Sun 05:20:49 AM -31.1990 148.7940 333° Northwest 445 512 36,000 240 Level FlightAware ADS-B
Sun 05:21:25 AM -31.1302 148.7556 333° Northwest 440 506 36,300  Climbing Aus ATC (RADAR)
Sun 05:21:35 AM -31.1140 148.7460 333° Northwest 445 512 36,000 -367 Descending FlightAware ADS-B
Sun 05:22:14 AM -31.0440 148.7050 333° Northwest 437 503 36,000 225 Level FlightAware ADS-B
Sun 05:22:55 AM -30.9645 148.6596 333° Northwest 440 506 36,300  Climbing Aus ATC (RADAR)
Sun 05:22:55 AM -30.9670 148.6610 333° Northwest 445 512 36,000  Descending FlightAware ADS-B
Sun 05:23:30 AM -30.9001 148.6229 333° Northwest 438 504 36,300  Climbing Aus ATC (RADAR)
Sun 05:23:40 AM -30.8830 148.6130 333° Northwest 445 512 36,000  Descending FlightAware ADS-B
Sun 05:24:20 AM -30.8077 148.5703 333° Northwest 439 505 36,300  Climbing Aus ATC (RADAR)
Sun 05:24:20 AM -30.8100 148.5710 333° Northwest 445 512 36,000 -439 Descending FlightAware ADS-B
Sun 05:25:01 AM -30.7350 148.5280 334° Northwest 436 502 36,000  Level FlightAware ADS-B
Sun 05:25:47 AM -30.6520 148.4810 334° Northwest 436 502 36,000 228 Level FlightAware ADS-B
Sun 05:26:20 AM -30.5871 148.4442 334° Northwest 436 502 36,300  Climbing Aus ATC (RADAR)
Sun 05:26:26 AM -30.5780 148.4390 334° Northwest 436 502 36,000 -235 Descending FlightAware ADS-B
Sun 05:27:11 AM -30.4960 148.3930 334° Northwest 435 501 36,100 214 Climbing FlightAware ADS-B
Sun 05:27:50 AM -30.4215 148.3506 334° Northwest 437 503 36,300  Climbing Aus ATC (RADAR)
Sun 05:28:08 AM -30.4060 148.3400 334° Northwest 433 498 36,100  Descending FlightAware ADS-B
Sun 05:28:40 AM -30.3309 148.2989 334° Northwest 433 498 36,300 -150 Climbing Aus ATC (RADAR)
Sun 05:28:48 AM -30.3280 148.2960 334° Northwest 432 497 36,000 -400 Descending FlightAware ADS-B
Sun 05:29:25 AM -30.2720 148.2630 333° Northwest 432 497 36,000  Level FlightAware ADS-B
Sun 05:30:12 AM -30.2010 148.2210 333° Northwest 432 497 36,000  Level FlightAware ADS-B
Sun 05:30:48 AM -30.1460 148.1890 333° Northwest 432 497 36,000  Level FlightAware ADS-B
Sun 05:31:36 AM -30.0730 148.1460 333° Northwest 432 497 36,000  Level FlightAware ADS-B
Sun 05:32:12 AM -30.0190 148.1140 333° Northwest 432 497 36,000  Level FlightAware ADS-B
Sun 05:33:01 AM -29.9450 148.0700 333° Northwest 432 497 36,000  Level FlightAware ADS-B
Sun 05:33:37 AM -29.8900 148.0380 333° Northwest 432 497 36,000  Level FlightAware ADS-B
Sun 05:34:25 AM -29.8180 147.9950 333° Northwest 432 497 36,000  Level FlightAware ADS-B
Sun 05:35:01 AM -29.7630 147.9630 333° Northwest 432 497 36,000  Level FlightAware ADS-B
Sun 05:35:49 AM -29.6900 147.9210 333° Northwest 432 497 36,000 231 Level FlightAware ADS-B
Sun 05:36:19 AM -29.5653 147.7269 333° Northwest 421 484 36,300  Climbing Aus ATC (RADAR)
Sun 05:36:25 AM -29.6360 147.8890 333° Northwest 432 497 36,000 -333 Descending FlightAware ADS-B
Sun 05:37:13 AM -29.5630 147.8460 333° Northwest 432 497 36,000  Level FlightAware ADS-B
Sun 05:37:49 AM -29.5090 147.8140 333° Northwest 432 497 36,000 178 Level FlightAware ADS-B
Sun 05:38:54 AM -29.3206 147.5177 333° Northwest 422 486 36,300 157 Climbing Aus ATC (RADAR)
Sun 05:39:44 AM -29.2413 147.4501 323° Northwest 423 487 36,300  Level Aus ATC (RADAR)
Sun 05:40:19 AM -29.1855 147.4026 323° Northwest 425 489 36,300  Level Aus ATC (RADAR)
Sun 05:41:53 AM -29.0368 147.2763 323° Northwest 431 496 36,300 -11 Level Aus ATC (RADAR)
Sun 05:47:23 AM -28.5088 146.8315 324° Northwest 36,000 -12 Descending Aus ATC (Calculated)
Sun 05:49:00 AM -28.3479 146.7016 323° Northwest  Level Estimated
Sun 05:50:00 AM -28.2496 146.6194 324° Northwest  Level FlightAware Approximate
Sun 05:51:00 AM -28.1513 146.5373 324° Northwest  Level FlightAware Approximate
Sun 05:52:00 AM -28.0529 146.4554 324° Northwest  Level FlightAware Approximate
Sun 05:52:23 AM -28.0014 146.4094 324° Northwest 36,000  Level Aus ATC (Calculated)
Sun 05:54:00 AM -27.8419 146.2778 324° Northwest  Level FlightAware Approximate
Sun 05:55:00 AM -27.7432 146.1966 324° Northwest  Level FlightAware Approximate
Sun 05:56:00 AM -27.6445 146.1155 324° Northwest  Level FlightAware Approximate
Sun 05:57:00 AM -27.5457 146.0346 324° Northwest  Level FlightAware Approximate
Sun 05:57:22 AM -27.5244 146.0172 324° Northwest 36,000  Level Aus ATC (Calculated)
Sun 05:59:00 AM -27.3630 145.8854 324° Northwest  Level FlightAware Approximate
Sun 06:00:00 AM -27.2641 145.8049 324° Northwest  Level FlightAware Approximate
Sun 06:01:00 AM -27.1651 145.7246 324° Northwest  Level FlightAware Approximate
Sun 06:01:22 AM -27.1527 145.7145 324° Northwest 36,000  Level Aus ATC (Calculated)
Sun 06:03:00 AM -27.0241 145.5434 310° West  Level FlightAware Approximate
Sun 06:03:23 AM -26.9304 145.5348 324° Northwest 36,000  Level Aus ATC (Calculated)
Sun 06:05:00 AM -27.0905 145.6642 144° Southeast  Level FlightAware Approximate
Sun 06:06:00 AM -27.1896 145.7444 144° Southeast  Level FlightAware Approximate
Sun 06:06:16 AM -26.6335 145.2963 143° Southeast 36,000  Level Aus ATC (Calculated)
Sun 06:06:34 AM -26.6500 145.3100 144° Southeast 424 488 36,000  Level FlightAware ADS-B
Sun 06:07:20 AM -26.5770 145.2510 324° Northwest 424 488 36,000  Level FlightAware ADS-B
Sun 06:08:00 AM -26.5150 145.2010 324° Northwest 425 489 36,000  Level FlightAware ADS-B
Sun 06:08:40 AM -26.4490 145.1490 325° Northwest 430 495 36,000  Level FlightAware ADS-B
Sun 06:09:39 AM -26.3600 145.0770 324° Northwest 433 498 36,000 64 Level FlightAware ADS-B
Sun 06:10:14 AM -26.2930 145.0250 325° Northwest 435 501 36,100 90 Climbing FlightAware ADS-B
Sun 06:10:46 AM -26.2410 144.9840 325° Northwest 436 502 36,100 -77 Level FlightAware ADS-B
Sun 06:11:16 AM -26.1131 144.8819 144° Southeast 36,000 -130 Descending Aus ATC (Calculated)
Sun 06:11:32 AM -26.1660 144.9240 325° Northwest 432 497 36,000  Level FlightAware ADS-B
Sun 06:12:12 AM -26.1010 144.8720 324° Northwest 430 495 36,000  Level FlightAware ADS-B
Sun 06:12:54 AM -26.0340 144.8190 325° Northwest 426 490 36,000  Level FlightAware ADS-B
Sun 06:13:34 AM -25.9690 144.7680 325° Northwest 423 487 36,000  Level FlightAware ADS-B
Sun 06:13:41 AM -25.9111 144.7223 323° Northwest 36,000  Level Aus ATC (Calculated)
Sun 06:14:14 AM -25.9060 144.7180 324° Northwest 419 482 36,000  Level FlightAware ADS-B
Sun 06:14:59 AM -25.8330 144.6610 325° Northwest 418 481 36,000  Level FlightAware ADS-B
Sun 06:15:39 AM -25.7700 144.6120 325° Northwest 417 480 36,000  Level FlightAware ADS-B
Sun 06:16:18 AM -25.7090 144.5630 324° Northwest 418 481 36,000  Level FlightAware ADS-B
Sun 06:16:53 AM -25.5925 144.4720 145° Southeast 36,000  Level Aus ATC (Calculated)
Sun 06:17:02 AM -25.6420 144.5100 324° Northwest 420 483 36,000 235 Level FlightAware ADS-B
Sun 06:17:21 AM -25.5393 144.4304 145° Southeast 36,000 286 Level Aus ATC (Calculated)
Sun 06:17:44 AM -25.5730 144.4570 325° Northwest 419 482 36,200 844 Climbing FlightAware ADS-B
Sun 06:18:25 AM -25.5070 144.4050 325° Northwest 424 488 36,900 1,171 Climbing FlightAware ADS-B
Sun 06:19:06 AM -25.4420 144.3540 325° Northwest 418 481 37,800 776 Climbing FlightAware ADS-B
Sun 06:19:50 AM -25.3720 144.3000 325° Northwest 415 478 38,000 107 Climbing FlightAware ADS-B
Sun 06:20:58 AM -25.2650 144.2160 325° Northwest 418 481 38,000  Level FlightAware ADS-B
Sun 06:21:42 AM -25.1960 144.1630 325° Northwest 419 482 38,000  Level FlightAware ADS-B
Sun 06:22:10 AM -25.1510 144.1280 325° Northwest 421 484 38,000  Level FlightAware ADS-B
Sun 06:22:15 AM -25.1136 144.0988 326° Northwest 36,000  Descending Aus ATC (Calculated)
Sun 06:22:50 AM -25.0860 144.0780 325° Northwest 424 488 38,000 1,558 Climbing FlightAware ADS-B
Sun 06:23:32 AM -25.0200 144.0260 324° Northwest 426 490 38,000  Level FlightAware ADS-B
Sun 06:24:16 AM -24.9480 143.9710 325° Northwest 427 491 38,000  Level FlightAware ADS-B
Sun 06:24:58 AM -24.8810 143.9180 324° Northwest 427 491 38,000  Level FlightAware ADS-B
Sun 06:25:40 AM -24.8130 143.8660 325° Northwest 426 490 38,000  Level FlightAware ADS-B
Sun 06:26:08 AM -24.7670 143.8300 325° Northwest 426 490 38,000  Level FlightAware ADS-B
Sun 06:26:50 AM -24.6990 143.7790 326° Northwest 424 488 38,000  Level FlightAware ADS-B
Sun 06:27:15 AM -24.6338 143.7286 150° Southeast 36,000  Descending Aus ATC (Calculated)
Sun 06:27:31 AM -24.6360 143.7300 325° Northwest 424 488 38,000 2,105 Climbing FlightAware ADS-B
Sun 06:28:12 AM -24.5670 143.6770 325° Northwest 424 488 38,000  Level FlightAware ADS-B
Sun 06:28:54 AM -24.4990 143.6250 325° Northwest 427 491 38,000  Level FlightAware ADS-B
Sun 06:29:36 AM -24.4310 143.5730 325° Northwest 430 495 38,000  Level FlightAware ADS-B
Sun 06:30:20 AM -24.3590 143.5180 325° Northwest 433 498 38,000 71 Level FlightAware ADS-B
Sun 06:31:00 AM -24.2930 143.4670 325° Northwest 436 502 38,100 72 Climbing FlightAware ADS-B
Sun 06:31:19 AM -24.2600 143.4426 325° Northwest 36,000  Descending Aus ATC (Calculated)
Sun 06:31:43 AM -24.2200 143.4120 325° Northwest 440 506 38,100 1,938 Climbing FlightAware ADS-B
Sun 06:32:24 AM -24.1530 143.3610 325° Northwest 440 506 38,100 -71 Level FlightAware ADS-B
Sun 06:33:08 AM -24.0790 143.3050 325° Northwest 438 504 38,000 -70 Descending FlightAware ADS-B
Sun 06:33:50 AM -24.0090 143.2520 325° Northwest 437 503 38,000  Level FlightAware ADS-B
Sun 06:34:32 AM -23.9390 143.1980 325° Northwest 437 503 38,000  Level FlightAware ADS-B
Sun 06:35:14 AM -23.8690 143.1450 325° Northwest 436 502 38,000  Level FlightAware ADS-B
Sun 06:35:46 AM -23.8160 143.1060 326° Northwest 436 502 38,000  Level FlightAware ADS-B
Sun 06:36:14 AM -23.6990 143.0173 146° Southeast 36,000  Descending Aus ATC (Calculated)
Sun 06:36:28 AM -23.7460 143.0520 325° Northwest 436 502 38,000 2,000 Climbing FlightAware ADS-B
Sun 06:37:14 AM -23.6690 142.9950 325° Northwest 438 504 38,000  Level FlightAware ADS-B
Sun 06:37:54 AM -23.6030 142.9450 325° Northwest 440 506 38,000  Level FlightAware ADS-B
Sun 06:38:33 AM -23.5360 142.8940 325° Northwest 441 507 38,000 73 Level FlightAware ADS-B
Sun 06:39:16 AM -23.4640 142.8400 325° Northwest 444 511 38,100 69 Climbing FlightAware ADS-B
Sun 06:40:00 AM -23.3890 142.7840 326° Northwest 446 513 38,100  Level FlightAware ADS-B
Sun 06:40:43 AM -23.3150 142.7290 326° Northwest 447 514 38,100  Level FlightAware ADS-B
Sun 06:41:13 AM -23.2072 142.6481 145° Southeast 36,000  Descending Aus ATC (Calculated)
Sun 06:41:23 AM -23.2470 142.6780 325° Northwest 447 514 38,100 2,353 Climbing FlightAware ADS-B
Sun 06:42:04 AM -23.1780 142.6270 325° Northwest 447 514 38,000 -71 Descending FlightAware ADS-B
Sun 06:42:48 AM -23.1030 142.5700 325° Northwest 447 514 38,000  Level FlightAware ADS-B
Sun 06:43:29 AM -23.0320 142.5170 326° Northwest 445 512 38,000  Level FlightAware ADS-B
Sun 06:44:02 AM -22.9770 142.4770 326° Northwest 444 511 38,000  Level FlightAware ADS-B
Sun 06:44:36 AM -22.9190 142.4330 325° Northwest 443 510 38,000  Level FlightAware ADS-B
Sun 06:45:17 AM -22.8580 142.3880 326° Northwest 444 511 38,000  Level FlightAware ADS-B
Sun 06:45:57 AM -22.7810 142.3310 326° Northwest 446 513 38,000  Level FlightAware ADS-B
Sun 06:46:15 AM -22.7144 142.2817 305° West 36,000  Descending Aus ATC (Calculated)
Sun 06:46:38 AM -22.7140 142.2810 325° Northwest 449 517 38,000 1,938 Climbing FlightAware ADS-B
Sun 06:47:20 AM -22.6390 142.2260 325° Northwest 451 519 38,100 81 Climbing FlightAware ADS-B
Sun 06:47:52 AM -22.5830 142.1850 326° Northwest 453 521 38,100  Level FlightAware ADS-B
Sun 06:48:28 AM -22.5030 142.1254 144° Southeast 36,000  Descending Aus ATC (Calculated)
Sun 06:48:32 AM -22.5140 142.1340 326° Northwest 454 522 38,100 2,864 Climbing FlightAware ADS-B
Sun 06:49:12 AM -22.4450 142.0830 326° Northwest 454 522 38,100  Level FlightAware ADS-B
Sun 06:49:56 AM -22.3680 142.0260 326° Northwest 453 521 38,100 -68 Level FlightAware ADS-B
Sun 06:50:15 AM -22.2914 141.9696 304° West 36,000 -136 Descending Aus ATC (Calculated)
Sun 06:50:40 AM -22.2910 141.9690 326° Northwest 452 520 38,000 1,846 Climbing FlightAware ADS-B
Sun 06:51:20 AM -22.2220 141.9190 326° Northwest 450 518 38,000  Level FlightAware ADS-B
Sun 06:52:04 AM -22.1470 141.8640 326° Northwest 449 517 38,000  Level FlightAware ADS-B
Sun 06:52:38 AM -22.0890 141.8210 326° Northwest 447 514 38,000  Level FlightAware ADS-B
Sun 06:53:14 AM -22.0360 141.7810 325° Northwest 447 514 38,000  Level FlightAware ADS-B
Sun 06:53:27 AM -21.9499 141.7194 321° Northwest 36,000  Descending Aus ATC (Calculated)
Sun 06:54:02 AM -21.9460 141.7160 326° Northwest 449 517 38,000 1,690 Climbing FlightAware ADS-B
Sun 06:54:38 AM -21.8850 141.6720 326° Northwest 451 519 38,000  Level FlightAware ADS-B
Sun 06:55:14 AM -21.8190 141.6240 326° Northwest 454 522 38,000 74 Level FlightAware ADS-B
Sun 06:55:59 AM -21.7420 141.5670 325° Northwest 458 527 38,100 82 Climbing FlightAware ADS-B
Sun 06:56:27 AM -21.6920 141.5310 326° Northwest 461 531 38,100  Level FlightAware ADS-B
Sun 06:57:07 AM -21.6220 141.4810 326° Northwest 463 533 38,100  Level FlightAware ADS-B
Sun 06:57:52 AM -21.5400 141.4210 326° Northwest 460 529 38,100 -78 Level FlightAware ADS-B
Sun 06:58:22 AM -21.4175 141.3324 146° Southeast 36,000 -188 Descending Aus ATC (Calculated)
Sun 06:58:24 AM -21.4860 141.3820 326° Northwest 457 526 38,000 2,857 Climbing FlightAware ADS-B
Sun 06:59:04 AM -21.4150 141.3300 326° Northwest 453 521 38,000  Level FlightAware ADS-B
Sun 06:59:46 AM -21.3420 141.2770 326° Northwest 450 518 38,000  Level FlightAware ADS-B
Sun 07:00:31 AM -21.2640 141.2220 327° Northwest 448 516 38,000  Level FlightAware ADS-B
Sun 07:01:13 AM -21.1920 141.1690 326° Northwest 449 517 38,000  Level FlightAware ADS-B
Sun 07:01:56 AM -21.1160 141.1150 326° Northwest 453 521 38,000  Level FlightAware ADS-B
Sun 07:02:37 AM -21.0460 141.0640 326° Northwest 457 526 38,000 75 Level FlightAware ADS-B
Sun 07:03:16 AM -20.9760 141.0140 326° Northwest 460 529 38,100  Climbing FlightAware ADS-B
Sun 07:03:21 AM -20.9435 140.9906 326° Northwest 36,000 -130 Descending Aus ATC (Calculated)
Sun 07:04:02 AM -20.8940 140.9550 326° Northwest 463 533 38,000 1,519 Climbing FlightAware ADS-B
Sun 07:04:28 AM -20.8249 140.9055 129° Southeast 36,000  Descending Aus ATC (Calculated)
Sun 07:04:40 AM -20.8260 140.9070 327° Northwest 462 532 38,000 2,353 Climbing FlightAware ADS-B
Sun 07:05:19 AM -20.7580 140.8580 326° Northwest 461 531 38,000  Level FlightAware ADS-B
Sun 07:06:01 AM -20.6830 140.8040 326° Northwest 461 531 38,000  Level FlightAware ADS-B
Sun 07:06:42 AM -20.6100 140.7520 326° Northwest 460 529 38,000  Level FlightAware ADS-B
Sun 07:07:24 AM -20.5390 140.7010 326° Northwest 460 529 38,000  Level FlightAware ADS-B
Sun 07:07:56 AM -20.4780 140.6580 327° Northwest 460 529 38,000  Level FlightAware ADS-B
Sun 07:08:21 AM -20.4094 140.6087 147° Southeast 36,000  Descending Aus ATC (Calculated)
Sun 07:08:27 AM -20.4240 140.6190 326° Northwest 459 528 38,000 2,727 Climbing FlightAware ADS-B
Sun 07:09:05 AM -20.3580 140.5720 326° Northwest 459 528 38,000  Level FlightAware ADS-B
Sun 07:09:45 AM -20.2860 140.5210 326° Northwest 461 531 38,000  Level FlightAware ADS-B
Sun 07:10:22 AM -20.2200 140.4740 326° Northwest 464 534 38,000 58 Level FlightAware ADS-B
Sun 07:11:26 AM -20.0534 140.3498 142° Southeast 38,000 91 Level Aus ATC (Calculated)
Sun 07:11:28 AM -20.1010 140.3890 326° Northwest 462 532 38,100 133 Climbing FlightAware ADS-B
Sun 07:12:11 AM -20.0300 140.3300 322° Northwest 463 533 38,100  Level FlightAware ADS-B
Sun 07:12:47 AM -19.9690 140.2810 323° Northwest 464 534 38,100  Level FlightAware ADS-B
Sun 07:13:29 AM -19.8960 140.2220 323° Northwest 466 536 38,100 -77 Level FlightAware ADS-B
Sun 07:14:05 AM -19.8340 140.1710 322° Northwest 466 536 38,000 -71 Descending FlightAware ADS-B
Sun 07:14:53 AM -19.7520 140.1050 323° Northwest 463 533 38,000  Level FlightAware ADS-B
Sun 07:15:41 AM -19.6710 140.0400 323° Northwest 461 531 38,000  Level FlightAware ADS-B
Sun 07:16:15 AM -19.5821 139.9681 144° Southeast 38,000  Level Aus ATC (Calculated)
Sun 07:16:17 AM -19.6100 139.9900 322° Northwest 460 529 38,000  Level FlightAware ADS-B
Sun 07:17:01 AM -19.5350 139.9300 323° Northwest 457 526 38,000  Level FlightAware ADS-B
Sun 07:17:25 AM -19.4950 139.8980 323° Northwest 456 525 38,000  Level FlightAware ADS-B
Sun 07:18:07 AM -19.4240 139.8400 322° Northwest 456 525 38,000  Level FlightAware ADS-B
Sun 07:18:51 AM -19.3500 139.7810 323° Northwest 460 529 38,000  Level FlightAware ADS-B
Sun 07:19:36 AM -19.2730 139.7190 323° Northwest 463 533 38,000 78 Level FlightAware ADS-B
Sun 07:20:08 AM -19.2170 139.6750 323° Northwest 466 536 38,100 79 Climbing FlightAware ADS-B
Sun 07:20:52 AM -19.1420 139.6140 322° Northwest 469 540 38,100  Level FlightAware ADS-B
Sun 07:21:15 AM -19.0508 139.5412 144° Southeast 38,000  Descending Aus ATC (Calculated)
Sun 07:21:33 AM -19.0710 139.5570 322° Northwest 471 542 38,100 98 Climbing FlightAware ADS-B
Sun 07:22:16 AM -18.9960 139.4970 323° Northwest 472 543 38,100 -65 Level FlightAware ADS-B
Sun 07:23:05 AM -18.9100 139.4290 323° Northwest 472 543 38,000 -73 Descending FlightAware ADS-B
Sun 07:23:29 AM -18.8144 139.3524 143° Southeast 38,000  Level Aus ATC (Calculated)
Sun 07:23:38 AM -18.8530 139.3830 323° Northwest 471 542 38,000  Level FlightAware ADS-B
Sun 07:24:08 AM -18.8000 139.3410 323° Northwest 469 540 38,000  Level FlightAware ADS-B
Sun 07:24:45 AM -18.7370 139.2910 323° Northwest 468 539 38,000  Level FlightAware ADS-B
Sun 07:25:30 AM -18.6580 139.2280 323° Northwest 466 536 38,000  Level FlightAware ADS-B
Sun 07:26:11 AM -18.5880 139.1720 323° Northwest 464 534 38,000  Level FlightAware ADS-B
Sun 07:26:14 AM -18.5185 139.1171 142° Southeast 38,000  Level Aus ATC (Calculated)
Sun 07:26:46 AM -18.5280 139.1250 323° Northwest 464 534 38,000  Level FlightAware ADS-B
Sun 07:27:27 AM -18.4580 139.0690 323° Northwest 466 536 38,000  Level FlightAware ADS-B
Sun 07:28:08 AM -18.3860 139.0120 323° Northwest 471 542 38,000 71 Level FlightAware ADS-B
Sun 07:28:51 AM -18.3120 138.9530 323° Northwest 473 544 38,100 69 Climbing FlightAware ADS-B
Sun 07:29:35 AM -18.2350 138.8930 323° Northwest 476 548 38,100  Level FlightAware ADS-B
Sun 07:29:44 AM -18.1335 138.8124 143° Southeast 38,000  Descending Aus ATC (Calculated)
Sun 07:30:12 AM -18.1680 138.8400 323° Northwest 479 551 38,100 80 Climbing FlightAware ADS-B
Sun 07:30:59 AM -18.0860 138.7750 323° Northwest 481 554 38,100 -68 Level FlightAware ADS-B
Sun 07:31:40 AM -18.0120 138.7170 323° Northwest 479 551 38,000 -61 Descending FlightAware ADS-B
Sun 07:32:38 AM -17.9080 138.6350 323° Northwest 477 549 38,000  Level FlightAware ADS-B
Sun 07:33:24 AM -17.8370 138.5780 323° Northwest 475 547 38,000  Level FlightAware ADS-B
Sun 07:34:00 AM -17.7830 138.5360 323° Northwest 475 547 38,000  Level FlightAware ADS-B
Sun 07:34:36 AM -17.7290 138.4930 323° Northwest 475 547 38,000  Level FlightAware ADS-B
Sun 07:34:39 AM -17.6438 138.4274 147° Southeast 38,000  Level Aus ATC (Calculated)
Sun 07:35:24 AM -17.6580 138.4370 323° Northwest 475 547 38,000  Level FlightAware ADS-B
Sun 07:36:01 AM -17.6020 138.3930 323° Northwest 475 547 38,000  Level FlightAware ADS-B
Sun 07:36:50 AM -17.5290 138.3350 323° Northwest 475 547 38,000  Level FlightAware ADS-B
Sun 07:37:38 AM -17.4580 138.2790 323° Northwest 475 547 38,000  Level FlightAware ADS-B
Sun 07:38:14 AM -17.4040 138.2360 323° Northwest 475 547 38,000  Level FlightAware ADS-B
Sun 07:38:38 AM -17.3680 138.2080 323° Northwest 475 547 38,000  Level FlightAware ADS-B
Sun 07:39:27 AM -17.2950 138.1500 323° Northwest 475 547 38,000  Level FlightAware ADS-B
Sun 07:39:38 AM -17.1088 138.0098 145° Southeast 38,000  Level Aus ATC (Calculated)
Sun 07:39:38 AM -17.1088 138.0098 145° Southeast 38,000  Level Aus ATC (Calculated)
Sun 07:40:03 AM -17.2410 138.1080 323° Northwest 475 547 38,000  Level FlightAware ADS-B
Sun 07:40:51 AM -17.1700 138.0520 323° Northwest 475 547 38,000  Level FlightAware ADS-B
Sun 07:41:27 AM -17.1160 138.0090 323° Northwest 475 547 38,000  Level FlightAware ADS-B
Sun 07:42:15 AM -17.0440 137.9530 323° Northwest 475 547 38,000  Level FlightAware ADS-B
Sun 07:42:51 AM -16.9910 137.9100 322° Northwest 475 547 38,000 Level FlightAware ADS-B
Sun 07:44:38 AM -16.5728 137.5946 323° Northwest 38,000 Level Aus ATC (Calculated)
Sun 07:45:00 AM -16.7797 137.7473 324° Northwest  Level FlightAware Approximate
Sun 07:46:00 AM -16.6814 137.6718 324° Northwest  Level FlightAware Approximate
Sun 07:47:00 AM -16.3405 137.4155 324° Northwest  Level FlightAware Approximate
Sun 07:48:00 AM -16.2423 137.3400 324° Northwest  Level FlightAware Approximate
Sun 07:48:12 AM -16.1703 137.2847 323° Northwest 38,000  Level Aus ATC (Calculated)
Sun 07:49:00 AM -16.1441 137.2645 324° Northwest  Level FlightAware Approximate
Sun 07:50:00 AM -15.9935 137.1490 324° Northwest  Level FlightAware Approximate
Sun 07:50:07 AM -15.9913 137.1473 323° Northwest 38,000  Level Aus ATC (Calculated)
Sun 07:52:00 AM -15.8061 137.0056 324° Northwest  Level FlightAware Approximate
Sun 07:52:11 AM -15.7673 136.9760 323° Northwest 38,000  Level Aus ATC (Calculated)
Sun 07:54:00 AM -15.5886 136.8396 324° Northwest  Level FlightAware Approximate
Sun 07:55:00 AM -15.4902 136.7646 324° Northwest  Level FlightAware Approximate
Sun 07:55:02 AM -15.4536 136.7367 323° Northwest 38,000  Level Aus ATC (Calculated)
Sun 07:56:32 AM -15.3195 136.6348 323° Northwest 38,000 11 Level Aus ATC (Calculated)
Sun 07:58:00 AM -15.4639 136.7446 144° Southeast  Level FlightAware Approximate
Sun 07:59:00 AM -15.3654 136.6697 324° Northwest  Level FlightAware Approximate
Sun 08:00:00 AM -15.2696 136.5969 324° Northwest  Level FlightAware Approximate
Sun 08:01:00 AM -15.1711 136.5222 324° Northwest  Level FlightAware Approximate
Sun 08:03:00 AM -14.9741 136.3729 324° Northwest  Level FlightAware Approximate
Sun 08:04:01 AM -14.5584 136.0505 324° Northwest 486 559 38,100  Level Aus ATC (RADAR)
Sun 08:05:51 AM -14.3519 135.8977 324° Northwest 504 580 38,300 -38 Climbing Aus ATC (RADAR)
Sun 08:06:41 AM -14.2587 135.8297 325° Northwest 490 564 38,000 -93 Descending Aus ATC (RADAR)
Sun 08:08:00 AM -14.1157 135.7206 323° Northwest 475 547 38,100  Climbing Aus ATC (RADAR)
Sun 08:08:55 AM -14.0091 135.6443 325° Northwest 492 566 38,000  Descending Aus ATC (RADAR)
Sun 08:09:45 AM -13.9204 135.5762 323° Northwest 479 551 38,100 33 Climbing Aus ATC (RADAR)
Sun 08:11:55 AM -13.6888 135.4002 324° Northwest 459 528 38,100  Level Aus ATC (RADAR)
Sun 08:12:45 AM -13.5919 135.3320 326° Northwest 472 543 38,100 57 Level Aus ATC (RADAR)
Sun 08:13:40 AM -13.4880 135.2556 324° Northwest 487 560 38,200 57 Climbing Aus ATC (RADAR)
Sun 08:14:30 AM -13.3949 135.1859 324° Northwest 489 563 38,200 -71 Level Aus ATC (RADAR)
Sun 08:15:05 AM -13.3254 135.1370 326° Northwest 495 570 38,100 -71 Descending Aus ATC (RADAR)
Sun 08:15:55 AM -13.2327 135.0671 324° Northwest 482 555 38,100  Level Aus ATC (RADAR)
Sun 08:16:50 AM -13.1333 134.9935 324° Northwest 474 545 38,100  Level Aus ATC (RADAR)
Sun 08:17:40 AM -13.0409 134.9258 324° Northwest 478 550 38,100 -75 Level Aus ATC (RADAR)
Sun 08:18:10 AM -12.9763 134.8789 325° Northwest 509 586 38,000 -71 Descending Aus ATC (RADAR)
Sun 08:19:04 AM -12.8757 134.8047 324° Northwest 482 555 38,000  Level Aus ATC (RADAR)
Sun 08:19:49 AM -12.7922 134.7429 324° Northwest 485 558 38,000  Level Aus ATC (RADAR)
Sun 08:20:44 AM -12.6910 134.6681 324° Northwest 482 555 38,000  Level Aus ATC (RADAR)
Sun 08:21:19 AM -12.6265 134.6209 324° Northwest 481 554 38,000 71 Level Aus ATC (RADAR)
Sun 08:22:09 AM -12.5348 134.5532 324° Northwest 481 554 38,100 57 Climbing Aus ATC (RADAR)
Sun 08:23:04 AM -12.4345 134.4787 324° Northwest 476 548 38,100 -67 Level Aus ATC (RADAR)
Sun 08:23:38 AM -12.3750 134.4350 324° Northwest 492 566 38,000  Descending FlightAware ADS-B
Sun 08:23:54 AM -12.3412 134.4106 324° Northwest 483 556 38,100  Climbing Aus ATC (RADAR)
Sun 08:24:18 AM -12.3020 134.3810 324° Northwest 493 567 38,000 -111 Descending FlightAware ADS-B
Sun 08:24:48 AM -12.2430 134.3370 324° Northwest 494 568 38,000 86 Level FlightAware ADS-B
Sun 08:25:28 AM -12.1680 134.2820 324° Northwest 495 570 38,100 70 Climbing FlightAware ADS-B
Sun 08:26:14 AM -12.0802 134.2186 324° Northwest 487 560 38,100  Level Aus ATC (RADAR)
Sun 08:26:28 AM -12.0600 134.2030 324° Northwest 497 572 38,100  Level FlightAware ADS-B
Sun 08:27:03 AM -11.9930 134.1540 324° Northwest 497 572 38,100  Level FlightAware ADS-B
Sun 08:27:04 AM -11.9870 134.1500 324° Northwest 484 557 38,100  Level Aus ATC (RADAR)
Sun 08:27:34 AM -11.9315 134.1091 324° Northwest 483 556 38,100  Level Aus ATC (RADAR)
Sun 08:27:43 AM -11.9150 134.0970 324° Northwest 498 573 38,100  Level FlightAware ADS-B
Sun 08:28:24 AM -11.8376 134.0407 324° Northwest 484 557 38,100 -120 Level Aus ATC (RADAR)
Sun 08:28:33 AM -11.8230 134.0290 324° Northwest 497 572 38,000 -176 Descending FlightAware ADS-B
Sun 08:28:58 AM -11.7760 133.9950 325° Northwest 497 572 38,000  Level FlightAware ADS-B
Sun 08:29:43 AM -11.6930 133.9340 324° Northwest 496 571 38,000  Level FlightAware ADS-B
Sun 08:30:23 AM -11.6180 133.8790 324° Northwest 495 570 38,000  Level FlightAware ADS-B
Sun 08:31:03 AM -11.5430 133.8250 325° Northwest 495 570 38,000  Level FlightAware ADS-B
Sun 08:31:33 AM -11.4839 133.7814 325° Northwest 478 550 38,000  Level Aus ATC (RADAR)
Sun 08:31:38 AM -11.4780 133.7780 325° Northwest 495 570 38,000 450 Level FlightAware ADS-B
Sun 08:32:13 AM -11.4110 133.7280 325° Northwest 495 570 38,300 600 Climbing FlightAware ADS-B
Sun 08:32:18 AM -11.4002 133.7204 325° Northwest 479 551 38,400 1,050 Climbing Aus ATC (RADAR)
Sun 08:32:53 AM -11.3390 133.6760 325° Northwest 497 572 39,000 960 Climbing FlightAware ADS-B
Sun 08:33:33 AM -11.2594 133.6176 325° Northwest 486 559 39,600 750 Climbing Aus ATC (RADAR)
Sun 08:33:33 AM -11.2630 133.6200 325° Northwest 500 575 39,500 1,000 Descending FlightAware ADS-B
Sun 08:34:03 AM -11.2029 133.5769 325° Northwest 486 559 40,100 750 Climbing Aus ATC (RADAR)
Sun 08:34:13 AM -11.1870 133.5650 325° Northwest 493 567 40,000 -120 Descending FlightAware ADS-B
Sun 08:34:53 AM -11.1073 133.5083 325° Northwest 490 564 40,000  Level Aus ATC (RADAR)
Sun 08:34:58 AM -11.1040 133.5050 325° Northwest 494 568 40,000  Level FlightAware ADS-B
Sun 08:35:43 AM -11.0190 133.4430 324° Northwest 497 572 40,000  Level FlightAware ADS-B
Sun 08:36:13 AM -10.9595 133.4000 324° Northwest 483 556 40,000  Level Aus ATC (RADAR)
Sun 08:36:24 AM -10.9440 133.3880 324° Northwest 499 574 40,000  Level FlightAware ADS-B
Sun 08:36:53 AM -10.8870 133.3470 325° Northwest 498 573 40,000  Level FlightAware ADS-B
Sun 08:37:33 AM -10.8130 133.2930 324° Northwest 498 573 40,000  Level FlightAware ADS-B
Sun 08:38:18 AM -10.7280 133.2320 325° Northwest 498 573 40,000  Level FlightAware ADS-B
Sun 08:38:58 AM -10.6475 133.1734 325° Northwest 491 565 40,000  Level Aus ATC (RADAR)
Sun 08:38:58 AM -10.6510 133.1760 325° Northwest 498 573 40,000  Level FlightAware ADS-B
Sun 08:39:38 AM -10.5762 133.1221 325° Northwest 466 536 40,000  Level Aus ATC (RADAR)
Sun 08:39:38 AM -10.5790 133.1240 325° Northwest 498 573 40,000  Level FlightAware ADS-B
Sun 08:40:08 AM -10.5201 133.0815 325° Northwest 475 547 40,000  Level Aus ATC (RADAR)
Sun 08:40:23 AM -10.4920 133.0610 325° Northwest 498 573 40,000  Level FlightAware ADS-B
Sun 08:41:03 AM -10.4170 133.0070 325° Northwest 493 567 40,000  Level FlightAware ADS-B
Sun 08:41:43 AM -10.3410 132.9520 325° Northwest 500 575 40,000  Level FlightAware ADS-B
Sun 08:42:23 AM -10.2650 132.8970 325° Northwest 494 568 40,000 86 Level FlightAware ADS-B
Sun 08:42:53 AM -10.2090 132.8560 324° Northwest 495 570 40,100 87 Climbing FlightAware ADS-B
Sun 08:43:32 AM -10.1331 132.8020 324° Northwest 486 559 40,100 -150 Level Aus ATC (RADAR)
Sun 08:43:33 AM -10.1330 132.8010 324° Northwest 495 570 40,000  Descending FlightAware ADS-B
Sun 08:44:27 AM -10.0293 132.7274 324° Northwest 484 557 40,100  Climbing Aus ATC (RADAR)
Sun 08:44:36 AM -10.0200 132.7200 324° Northwest 496 571 40,000  Descending FlightAware ADS-B
Sun 08:45:12 AM -9.9433 132.6652 324° Northwest 487 560 40,100  Climbing Aus ATC (RADAR)
Sun 08:45:13 AM -9.9440 132.6660 324° Northwest 495 570 40,000 -167 Descending FlightAware ADS-B
Sun 08:45:48 AM -9.8770 132.6170 324° Northwest 496 571 40,000  Level FlightAware ADS-B
Sun 08:46:28 AM -9.8010 132.5620 325° Northwest 496 571 40,000  Level FlightAware ADS-B
Sun 08:46:58 AM -9.7460 132.5220 324° Northwest 497 572 40,000  Level FlightAware ADS-B
Sun 08:47:38 AM -9.6690 132.4670 325° Northwest 496 571 40,000  Level FlightAware ADS-B
Sun 08:48:17 AM -9.6070 132.4220 325° Northwest 496 571 40,000  Level FlightAware ADS-B
Sun 08:48:22 AM -9.5825 132.4045 325° Northwest 491 565 40,000  Level Aus ATC (RADAR)
Sun 08:48:48 AM -9.5360 132.3720 325° Northwest 496 571 40,000  Level FlightAware ADS-B
Sun 08:49:34 AM -9.4630 132.3180 324° Northwest 495 570 40,000  Level FlightAware ADS-B
Sun 08:50:12 AM -9.4030 132.2740 324° Northwest 495 570 40,000  Level FlightAware ADS-B
Sun 08:50:52 AM -9.2991 132.2027 324° Northwest 482 555 40,000  Level Aus ATC (RADAR)
Sun 08:50:53 AM -9.2990 132.2020 324° Northwest 494 568 40,000  Level FlightAware ADS-B
Sun 08:51:37 AM -9.2140 132.1414 324° Northwest 483 556 40,000  Level Aus ATC (RADAR)
Sun 08:51:38 AM -9.2140 132.1410 324° Northwest 494 568 40,000  Level FlightAware ADS-B
Sun 08:52:13 AM -9.1470 132.0930 325° Northwest 494 568 40,000  Level FlightAware ADS-B
Sun 08:52:53 AM -9.0720 132.0390 325° Northwest 495 570 40,000  Level FlightAware ADS-B
Sun 08:52:56 AM -9.0624 132.0335 325° Northwest 480 552 40,000  Level Aus ATC (RADAR)
Sun 08:53:26 AM -9.0055 131.9926 325° Northwest 482 555 40,000  Level Aus ATC (RADAR)
Sun 08:53:33 AM -8.9950 131.9840 325° Northwest 496 571 40,000  Level FlightAware ADS-B
Sun 08:54:06 AM -8.9299 131.9384 325° Northwest 481 554 40,000  Level Aus ATC (RADAR)
Sun 08:54:29 AM -8.9020 131.9160 325° Northwest 495 570 40,000  Level FlightAware ADS-B
Sun 08:54:36 AM -8.8729 131.8981 325° Northwest 480 552 40,000  Level Aus ATC (RADAR)
Sun 08:55:17 AM -8.8280 131.8590 323° Northwest 495 570 40,000  Level FlightAware ADS-B
Sun 08:55:54 AM -8.7700 131.8150 323° Northwest 495 570 40,000  Level FlightAware ADS-B
Sun 08:56:43 AM -8.6940 131.7570 323° Northwest 495 570 40,000  Level FlightAware ADS-B
Sun 08:57:20 AM -8.6360 131.7130 323° Northwest 495 570 40,000  Level FlightAware ADS-B
Sun 08:57:56 AM -8.5800 131.6700 323° Northwest 495 570 40,000  Level FlightAware ADS-B
Sun 08:58:26 AM -8.4353 131.5842 323° Northwest 492 566 40,000  Level Aus ATC (RADAR)
Sun 08:58:32 AM -8.5250 131.6280 323° Northwest 495 570 40,000  Level FlightAware ADS-B
Sun 08:58:56 AM -8.4870 131.5990 323° Northwest 495 570 40,000  Level FlightAware ADS-B
Sun 08:59:45 AM -8.4110 131.5410 323° Northwest 495 570 40,000  Level FlightAware ADS-B
Sun 09:00:09 AM -8.3740 131.5130 323° Northwest 495 570 40,000  Level FlightAware ADS-B
Sun 09:01:21 AM -8.2620 131.4280 323° Northwest 495 570 40,000  Level FlightAware ADS-B
Sun 09:01:57 AM -8.2060 131.3850 323° Northwest 495 570 40,000  Level FlightAware ADS-B
Sun 09:02:34 AM -8.1480 131.3410 323° Northwest 495 570 40,000  Level FlightAware ADS-B
Sun 09:03:10 AM -8.0920 131.2990 323° Northwest 495 570 40,000 Level FlightAware ADS-B
Sun 09:05:00 AM -7.9083 131.1699 325° Northwest  Level FlightAware Approximate
Sun 09:06:00 AM -7.8081 131.0996 325° Northwest  Level FlightAware Approximate
Sun 09:07:00 AM -7.7079 131.0292 325° Northwest  Level FlightAware Approximate
Sun 09:08:00 AM -7.6077 130.9590 325° Northwest  Level FlightAware Approximate
Sun 09:09:00 AM -7.5074 130.8887 325° Northwest  Level FlightAware Approximate
Sun 09:10:00 AM -7.4072 130.8185 325° Northwest  Level FlightAware Approximate
Sun 09:11:00 AM -7.3069 130.7483 325° Northwest  Level FlightAware Approximate
Sun 09:12:00 AM -7.2066 130.6781 325° Northwest  Level FlightAware Approximate
Sun 09:13:00 AM -7.1064 130.6080 325° Northwest  Level FlightAware Approximate
Sun 09:14:00 AM -7.0061 130.5379 325° Northwest  Level FlightAware Approximate
Sun 09:15:00 AM -6.9058 130.4678 325° Northwest  Level FlightAware Approximate
Sun 09:16:00 AM -6.8055 130.3978 325° Northwest  Level FlightAware Approximate
Sun 09:17:00 AM -6.7051 130.3278 325° Northwest  Level FlightAware Approximate
Sun 09:18:00 AM -6.6048 130.2578 325° Northwest  Level FlightAware Approximate
Sun 09:19:00 AM -6.5045 130.1878 325° Northwest  Level FlightAware Approximate
Sun 09:20:00 AM -6.4041 130.1179 325° Northwest  Level FlightAware Approximate
Sun 09:21:00 AM -6.3038 130.0480 325° Northwest  Level FlightAware Approximate
Sun 09:22:00 AM -6.2034 129.9781 325° Northwest  Level FlightAware Approximate
Sun 09:23:00 AM -6.1030 129.9083 325° Northwest  Level FlightAware Approximate
Sun 09:24:00 AM -6.0026 129.8385 325° Northwest  Level FlightAware Approximate
Sun 09:25:00 AM -5.9022 129.7687 325° Northwest  Level FlightAware Approximate
Sun 09:26:00 AM -5.8018 129.6989 325° Northwest  Level FlightAware Approximate
Sun 09:27:00 AM -5.7014 129.6292 325° Northwest  Level FlightAware Approximate
Sun 09:28:00 AM -5.6010 129.5594 325° Northwest  Level FlightAware Approximate
Sun 09:29:00 AM -5.5005 129.4897 325° Northwest  Level FlightAware Approximate
Sun 09:30:00 AM -5.4001 129.4201 325° Northwest  Level FlightAware Approximate
Sun 09:31:00 AM -5.2996 129.3504 325° Northwest  Level FlightAware Approximate
Sun 09:32:00 AM -5.1992 129.2808 325° Northwest  Level FlightAware Approximate
Sun 09:33:00 AM -5.0987 129.2112 325° Northwest  Level FlightAware Approximate
Sun 09:34:00 AM -4.9982 129.1416 325° Northwest  Level FlightAware Approximate
Sun 09:35:00 AM -4.8978 129.0721 325° Northwest  Level FlightAware Approximate
Sun 09:36:00 AM -4.7973 129.0025 325° Northwest  Level FlightAware Approximate
Sun 09:37:00 AM -4.6968 128.9330 325° Northwest  Level FlightAware Approximate
Sun 09:38:00 AM -4.5963 128.8635 325° Northwest  Level FlightAware Approximate
Sun 09:39:00 AM -4.4958 128.7940 325° Northwest  Level FlightAware Approximate
Sun 09:40:00 AM -4.3953 128.7246 325° Northwest  Level FlightAware Approximate
Sun 09:41:00 AM -4.2947 128.6551 325° Northwest  Level FlightAware Approximate
Sun 09:42:00 AM -4.1942 128.5857 325° Northwest  Level FlightAware Approximate
Sun 09:43:00 AM -4.0937 128.5163 325° Northwest  Level FlightAware Approximate
Sun 09:44:00 AM -3.9931 128.4469 325° Northwest  Level FlightAware Approximate
Sun 09:45:00 AM -3.8926 128.3775 325° Northwest  Level FlightAware Approximate
Sun 09:46:00 AM -3.7920 128.3082 325° Northwest  Level FlightAware Approximate
Sun 09:47:00 AM -3.6915 128.2388 325° Northwest  Level FlightAware Approximate
Sun 09:48:00 AM -3.5896 128.1712 330° Northwest  Level FlightAware Approximate
Sun 09:49:00 AM -3.4842 128.1095 330° Northwest  Level FlightAware Approximate
Sun 09:50:00 AM -3.3788 128.0477 330° Northwest  Level FlightAware Approximate
Sun 09:51:00 AM -3.2734 127.9860 330° Northwest  Level FlightAware Approximate
Sun 09:52:00 AM -3.1681 127.9243 330° Northwest  Level FlightAware Approximate
Sun 09:53:00 AM -3.0627 127.8626 330° Northwest  Level FlightAware Approximate
Sun 09:54:00 AM -2.9573 127.8009 330° Northwest  Level FlightAware Approximate
Sun 09:55:00 AM -2.8519 127.7393 330° Northwest  Level FlightAware Approximate
Sun 09:56:00 AM -2.7465 127.6776 330° Northwest  Level FlightAware Approximate
Sun 09:57:00 AM -2.6411 127.6160 330° Northwest  Level FlightAware Approximate
Sun 09:58:00 AM -2.5357 127.5544 330° Northwest  Level FlightAware Approximate
Sun 09:59:00 AM -2.4303 127.4927 330° Northwest  Level FlightAware Approximate
Sun 10:00:00 AM -2.3249 127.4311 330° Northwest  Level FlightAware Approximate
Sun 10:01:00 AM -2.2195 127.3695 330° Northwest  Level FlightAware Approximate
Sun 10:02:00 AM -2.1141 127.3079 330° Northwest  Level FlightAware Approximate
Sun 10:03:00 AM -2.0087 127.2464 330° Northwest  Level FlightAware Approximate
Sun 10:04:00 AM -1.9033 127.1848 330° Northwest  Level FlightAware Approximate
Sun 10:05:00 AM -1.7979 127.1232 330° Northwest  Level FlightAware Approximate
Sun 10:06:00 AM -1.6925 127.0616 330° Northwest  Level FlightAware Approximate
Sun 10:07:00 AM -1.5871 127.0001 330° Northwest  Level FlightAware Approximate
Sun 10:08:00 AM -1.4816 126.9385 330° Northwest  Level FlightAware Approximate
Sun 10:09:00 AM -1.3762 126.8770 330° Northwest  Level FlightAware Approximate
Sun 10:10:00 AM -1.2708 126.8155 330° Northwest  Level FlightAware Approximate
Sun 10:11:00 AM -1.1654 126.7539 330° Northwest  Level FlightAware Approximate
Sun 10:12:00 AM -1.0600 126.6924 330° Northwest  Level FlightAware Approximate
Sun 10:13:00 AM -0.9545 126.6309 330° Northwest  Level FlightAware Approximate
Sun 10:14:00 AM -0.8491 126.5694 330° Northwest  Level FlightAware Approximate
Sun 10:15:00 AM -0.7437 126.5078 330° Northwest  Level FlightAware Approximate
Sun 10:16:00 AM -0.6382 126.4463 330° Northwest  Level FlightAware Approximate
Sun 10:17:00 AM -0.5328 126.3848 330° Northwest  Level FlightAware Approximate
Sun 10:18:00 AM -0.4274 126.3233 330° Northwest  Level FlightAware Approximate
Sun 10:19:00 AM -0.3219 126.2618 330° Northwest  Level FlightAware Approximate
Sun 10:20:00 AM -0.2165 126.2003 330° Northwest  Level FlightAware Approximate
Sun 10:21:00 AM -0.1111 126.1388 330° Northwest  Level FlightAware Approximate
Sun 10:22:00 AM -0.0057 126.0773 330° Northwest  Level FlightAware Approximate
Sun 10:23:00 AM 0.0998 126.0157 330° Northwest  Level FlightAware Approximate
Sun 10:24:00 AM 0.2052 125.9542 330° Northwest  Level FlightAware Approximate
Sun 10:25:00 AM 0.3106 125.8927 330° Northwest  Level FlightAware Approximate
Sun 10:26:00 AM 0.4161 125.8312 330° Northwest  Level FlightAware Approximate
Sun 10:27:00 AM 0.5215 125.7697 330° Northwest  Level FlightAware Approximate
Sun 10:28:00 AM 0.6269 125.7082 330° Northwest  Level FlightAware Approximate
Sun 10:29:00 AM 0.7323 125.6467 330° Northwest  Level FlightAware Approximate
Sun 10:30:00 AM 0.8378 125.5852 330° Northwest  Level FlightAware Approximate
Sun 10:31:00 AM 0.9432 125.5237 330° Northwest  Level FlightAware Approximate
Sun 10:32:00 AM 1.0486 125.4621 330° Northwest  Level FlightAware Approximate
Sun 10:33:00 AM 1.1541 125.4006 330° Northwest  Level FlightAware Approximate
Sun 10:34:00 AM 1.2595 125.3391 330° Northwest  Level FlightAware Approximate
Sun 10:35:00 AM 1.3649 125.2775 330° Northwest  Level FlightAware Approximate
Sun 10:36:00 AM 1.4703 125.2160 330° Northwest  Level FlightAware Approximate
Sun 10:37:00 AM 1.5757 125.1544 330° Northwest  Level FlightAware Approximate
Sun 10:38:00 AM 1.6812 125.0929 330° Northwest  Level FlightAware Approximate
Sun 10:39:00 AM 1.7866 125.0313 330° Northwest  Level FlightAware Approximate
Sun 10:40:00 AM 1.8920 124.9697 330° Northwest  Level FlightAware Approximate
Sun 10:41:00 AM 1.9974 124.9082 330° Northwest  Level FlightAware Approximate
Sun 10:42:00 AM 2.1026 124.8462 329° Northwest  Level FlightAware Approximate
Sun 10:43:00 AM 2.2076 124.7839 329° Northwest  Level FlightAware Approximate
Sun 10:44:00 AM 2.3126 124.7216 329° Northwest  Level FlightAware Approximate
Sun 10:45:00 AM 2.4176 124.6593 329° Northwest  Level FlightAware Approximate
Sun 10:46:00 AM 2.5225 124.5969 329° Northwest  Level FlightAware Approximate
Sun 10:47:00 AM 2.6275 124.5346 329° Northwest  Level FlightAware Approximate
Sun 10:48:00 AM 2.7325 124.4723 329° Northwest  Level FlightAware Approximate
Sun 10:49:00 AM 2.8375 124.4099 329° Northwest  Level FlightAware Approximate
Sun 10:50:00 AM 2.9424 124.3475 329° Northwest  Level FlightAware Approximate
Sun 10:51:00 AM 3.0474 124.2851 329° Northwest  Level FlightAware Approximate
Sun 10:52:00 AM 3.1524 124.2228 329° Northwest  Level FlightAware Approximate
Sun 10:53:00 AM 3.2573 124.1604 329° Northwest  Level FlightAware Approximate
Sun 10:54:00 AM 3.3623 124.0979 329° Northwest  Level FlightAware Approximate
Sun 10:55:00 AM 3.4672 124.0355 329° Northwest  Level FlightAware Approximate
Sun 10:56:00 AM 3.5722 123.9731 329° Northwest  Level FlightAware Approximate
Sun 10:57:00 AM 3.6771 123.9106 329° Northwest  Level FlightAware Approximate
Sun 10:58:00 AM 3.7821 123.8481 329° Northwest  Level FlightAware Approximate
Sun 10:59:00 AM 3.8870 123.7856 329° Northwest  Level FlightAware Approximate
Sun 11:00:00 AM 3.9919 123.7231 329° Northwest  Level FlightAware Approximate
Sun 11:01:00 AM 4.0981 123.6628 331° Northwest  Level FlightAware Approximate
Sun 11:02:00 AM 4.2044 123.6027 331° Northwest  Level FlightAware Approximate
Sun 11:03:00 AM 4.3107 123.5425 331° Northwest  Level FlightAware Approximate
Sun 11:04:00 AM 4.4170 123.4823 331° Northwest  Level FlightAware Approximate
Sun 11:05:00 AM 4.5233 123.4221 331° Northwest  Level FlightAware Approximate
Sun 11:06:00 AM 4.6296 123.3619 331° Northwest  Level FlightAware Approximate
Sun 11:07:00 AM 4.7358 123.3017 331° Northwest  Level FlightAware Approximate
Sun 11:08:00 AM 4.8421 123.2414 331° Northwest  Level FlightAware Approximate
Sun 11:09:00 AM 4.9484 123.1811 331° Northwest  Level FlightAware Approximate
Sun 11:10:00 AM 5.0546 123.1208 331° Northwest  Level FlightAware Approximate
Sun 11:11:00 AM 5.1609 123.0605 331° Northwest  Level FlightAware Approximate
Sun 11:12:00 AM 5.2671 123.0002 331° Northwest  Level FlightAware Approximate
Sun 11:13:00 AM 5.3734 122.9398 331° Northwest  Level FlightAware Approximate
Sun 11:14:00 AM 5.4796 122.8794 331° Northwest  Level FlightAware Approximate
Sun 11:15:00 AM 5.5858 122.8190 330° Northwest  Level FlightAware Approximate
Sun 11:16:00 AM 5.6921 122.7586 330° Northwest  Level FlightAware Approximate
Sun 11:17:00 AM 5.7983 122.6982 330° Northwest  Level FlightAware Approximate
Sun 11:18:00 AM 5.9045 122.6377 330° Northwest  Level FlightAware Approximate
Sun 11:19:00 AM 6.0107 122.5772 330° Northwest  Level FlightAware Approximate
Sun 11:20:00 AM 6.1169 122.5167 330° Northwest  Level FlightAware Approximate
Sun 11:21:00 AM 6.2231 122.4562 330° Northwest  Level FlightAware Approximate
Sun 11:22:00 AM 6.3293 122.3956 330° Northwest  Level FlightAware Approximate
Sun 11:23:00 AM 6.4355 122.3350 330° Northwest  Level FlightAware Approximate
Sun 11:24:00 AM 6.5416 122.2744 330° Northwest  Level FlightAware Approximate
Sun 11:25:00 AM 6.6478 122.2138 330° Northwest  Level FlightAware Approximate
Sun 11:26:00 AM 6.7539 122.1531 330° Northwest  Level FlightAware Approximate
Sun 11:27:00 AM 6.8601 122.0924 330° Northwest  Level FlightAware Approximate
Sun 11:28:00 AM 6.9676 122.0344 334° Northwest  Level FlightAware Approximate
Sun 11:29:00 AM 7.0774 121.9806 334° Northwest  Level FlightAware Approximate
Sun 11:30:00 AM 7.1872 121.9268 334° Northwest  Level FlightAware Approximate
Sun 11:31:00 AM 7.2969 121.8729 334° Northwest  Level FlightAware Approximate
Sun 11:32:00 AM 7.4066 121.8190 334° Northwest  Level FlightAware Approximate
Sun 11:33:00 AM 7.5163 121.7651 334° Northwest  Level FlightAware Approximate
Sun 11:34:00 AM 7.6261 121.7111 334° Northwest  Level FlightAware Approximate
Sun 11:35:00 AM 7.7358 121.6571 334° Northwest  Level FlightAware Approximate
Sun 11:36:00 AM 7.8455 121.6031 334° Northwest  Level FlightAware Approximate
Sun 11:37:00 AM 7.9552 121.5491 334° Northwest  Level FlightAware Approximate
Sun 11:38:00 AM 8.0649 121.4950 334° Northwest  Level FlightAware Approximate
Sun 11:39:00 AM 8.1746 121.4409 334° Northwest  Level FlightAware Approximate
Sun 11:40:00 AM 8.2843 121.3868 334° Northwest  Level FlightAware Approximate
Sun 11:41:00 AM 8.3939 121.3326 334° Northwest  Level FlightAware Approximate
Sun 11:42:00 AM 8.5036 121.2785 334° Northwest  Level FlightAware Approximate
Sun 11:43:00 AM 8.6132 121.2242 334° Northwest  Level FlightAware Approximate
Sun 11:44:00 AM 8.7229 121.1700 334° Northwest  Level FlightAware Approximate
Sun 11:45:00 AM 8.8325 121.1157 334° Northwest  Level FlightAware Approximate
Sun 11:46:00 AM 8.9422 121.0614 334° Northwest  Level FlightAware Approximate
Sun 11:47:00 AM 9.0518 121.0071 334° Northwest  Level FlightAware Approximate
Sun 11:48:00 AM 9.1614 120.9527 334° Northwest  Level FlightAware Approximate
Sun 11:49:00 AM 9.2710 120.8983 334° Northwest  Level FlightAware Approximate
Sun 11:50:00 AM 9.3806 120.8438 334° Northwest  Level FlightAware Approximate
Sun 11:51:00 AM 9.4902 120.7893 334° Northwest  Level FlightAware Approximate
Sun 11:52:00 AM 9.5998 120.7348 334° Northwest  Level FlightAware Approximate
Sun 11:53:00 AM 9.7094 120.6803 334° Northwest  Level FlightAware Approximate
Sun 11:54:00 AM 9.8189 120.6257 334° Northwest  Level FlightAware Approximate
Sun 11:55:00 AM 9.9285 120.5711 334° Northwest  Level FlightAware Approximate
Sun 11:56:00 AM 10.0380 120.5164 334° Northwest  Level FlightAware Approximate
Sun 11:56:49 AM 12.5690 119.2330 334° Northwest 469 540 41,000  Level FlightAware ADS-B
Sun 11:57:00 AM 10.1476 120.4617 334° Northwest  Level FlightAware Approximate
Sun 11:57:29 AM 12.6520 119.1900 333° Northwest 469 540 41,000  Level FlightAware ADS-B
Sun 11:58:56 AM 12.7950 119.1160 333° Northwest 469 540 41,000  Level FlightAware ADS-B
Sun 11:59:32 AM 12.8550 119.0850 333° Northwest 469 540 41,000  Level FlightAware ADS-B
Sun 11:59:58 AM 12.8970 119.0620 332° Northwest 469 540 41,000  Level FlightAware ADS-B
Sun 12:00:48 PM 13.0390 118.9920 334° Northwest 470 541 41,000 63 Level FlightAware ADS-B
Sun 12:01:33 PM 13.1300 118.9460 334° Northwest 468 539 41,100  Climbing FlightAware ADS-B
Sun 12:02:10 PM 13.2000 118.9100 333° Northwest 468 539 41,000 -77 Descending FlightAware ADS-B
Sun 12:02:51 PM 13.2800 118.8690 333° Northwest 463 533 41,000  Level FlightAware ADS-B
Sun 12:03:21 PM 13.3390 118.8390 334° Northwest 459 528 41,000  Level FlightAware ADS-B
Sun 12:03:59 PM 13.4100 118.8020 333° Northwest 457 526 41,000  Level FlightAware ADS-B
Sun 12:04:43 PM 13.4930 118.7590 333° Northwest 456 525 41,000  Level FlightAware ADS-B
Sun 12:05:18 PM 13.5580 118.7250 333° Northwest 456 525 41,000  Level FlightAware ADS-B
Sun 12:05:53 PM 13.6250 118.6910 334° Northwest 454 522 41,000  Level FlightAware ADS-B
Sun 12:06:33 PM 13.7000 118.6520 333° Northwest 452 520 41,000  Level FlightAware ADS-B
Sun 12:07:23 PM 13.7930 118.6050 334° Northwest 450 518 41,000  Level FlightAware ADS-B
Sun 12:08:01 PM 13.8660 118.5670 333° Northwest 449 517 41,000  Level FlightAware ADS-B
Sun 12:08:41 PM 13.9390 118.5290 333° Northwest 450 518 41,000  Level FlightAware ADS-B
Sun 12:09:13 PM 13.9980 118.4980 333° Northwest 450 518 41,000  Level FlightAware ADS-B
Sun 12:09:55 PM 14.0780 118.4570 334° Northwest 451 519 41,000 -73 Level FlightAware ADS-B
Sun 12:10:35 PM 14.1510 118.4190 333° Northwest 452 520 40,900 -492 Descending FlightAware ADS-B
Sun 12:11:57 PM 14.3070 118.3380 333° Northwest 456 525 40,000 -419 Descending FlightAware ADS-B
Sun 12:12:44 PM 14.3940 118.2930 333° Northwest 456 525 40,000  Level FlightAware ADS-B
Sun 12:13:25 PM 14.4720 118.2530 334° Northwest 464 534 40,000  Level FlightAware ADS-B
Sun 12:13:54 PM 14.5280 118.2230 333° Northwest 458 527 40,000  Level FlightAware ADS-B
Sun 12:14:30 PM 14.5950 118.1890 334° Northwest 453 521 40,000  Level FlightAware ADS-B
Sun 12:15:24 PM 14.6960 118.1360 333° Northwest 455 524 40,000  Level FlightAware ADS-B
Sun 12:16:02 PM 14.7690 118.0980 333° Northwest 456 525 40,000  Level FlightAware ADS-B
Sun 12:16:39 PM 14.8400 118.0610 333° Northwest 458 527 40,000  Level FlightAware ADS-B
Sun 12:17:22 PM 14.9210 118.0180 333° Northwest 459 528 40,000  Level FlightAware ADS-B
Sun 12:18:02 PM 14.9960 117.9790 333° Northwest 454 522 40,000  Level FlightAware ADS-B
Sun 12:18:38 PM 15.0640 117.9440 334° Northwest 451 519 40,000  Level FlightAware ADS-B
Sun 12:19:19 PM 15.1400 117.9040 333° Northwest 448 516 40,000  Level FlightAware ADS-B
Sun 12:20:03 PM 15.2230 117.8610 333° Northwest 449 517 40,000  Level FlightAware ADS-B
Sun 12:20:54 PM 15.3090 117.8150 333° Northwest 449 517 40,000  Level FlightAware ADS-B
Sun 12:21:33 PM 15.3890 117.7740 334° Northwest 451 519 40,000  Level FlightAware ADS-B
Sun 12:22:32 PM 15.4920 117.7180 332° Northwest 452 520 40,000  Level FlightAware ADS-B
Sun 12:23:20 PM 15.5670 117.6770 332° Northwest 452 520 40,000  Level FlightAware ADS-B
Sun 12:23:59 PM 15.6280 117.6430 332° Northwest 452 520 40,000  Level FlightAware ADS-B
Sun 12:24:46 PM 15.7020 117.6020 332° Northwest 452 520 40,000  Level FlightAware ADS-B
Sun 12:25:23 PM 15.7600 117.5700 332° Northwest 452 520 40,000  Level FlightAware ADS-B
Sun 12:26:11 PM 15.8360 117.5290 333° Northwest 452 520 40,000  Level FlightAware ADS-B
Sun 12:26:47 PM 15.8920 117.4970 331° Northwest 452 520 40,000  Level FlightAware ADS-B
Sun 12:27:35 PM 15.9670 117.4560 332° Northwest 452 520 40,000  Level FlightAware ADS-B
Sun 12:28:13 PM 16.0270 117.4230 332° Northwest 452 520 40,000  Level FlightAware ADS-B
Sun 12:28:49 PM 16.0830 117.3910 331° Northwest 452 520 40,000  Level FlightAware ADS-B
Sun 12:29:36 PM 16.1570 117.3510 333° Northwest 452 520 40,000  Level FlightAware ADS-B
Sun 12:30:14 PM 16.2170 117.3180 332° Northwest 452 520 40,000  Level FlightAware ADS-B
Sun 12:30:50 PM 16.2730 117.2860 331° Northwest 452 520 40,000  Level FlightAware ADS-B
Sun 12:31:37 PM 16.3470 117.2450 332° Northwest 452 520 40,000 -292 Level FlightAware ADS-B
Sun 12:34:00 PM 16.6069 117.1087 333° Northwest  Level FlightAware Approximate
Sun 12:35:00 PM 16.7160 117.0515 333° Northwest  Level FlightAware Approximate
Sun 12:36:00 PM 16.8250 116.9941 333° Northwest  Level FlightAware Approximate
Sun 12:37:00 PM 16.9340 116.9367 333° Northwest  Level FlightAware Approximate
Sun 12:38:00 PM 17.0429 116.8792 333° Northwest  Level FlightAware Approximate
Sun 12:39:00 PM 17.1519 116.8217 333° Northwest  Level FlightAware Approximate
Sun 12:40:00 PM 17.2609 116.7641 333° Northwest  Level FlightAware Approximate
Sun 12:41:00 PM 17.3698 116.7064 333° Northwest  Level FlightAware Approximate
Sun 12:42:00 PM 17.4787 116.6487 333° Northwest  Level FlightAware Approximate
Sun 12:43:00 PM 17.5876 116.5908 333° Northwest  Level FlightAware Approximate
Sun 12:44:00 PM 17.6965 116.5330 333° Northwest  Level FlightAware Approximate
Sun 12:45:00 PM 17.8054 116.4750 333° Northwest  Level FlightAware Approximate
Sun 12:46:00 PM 17.9142 116.4170 333° Northwest  Level FlightAware Approximate
Sun 12:47:00 PM 18.0231 116.3589 333° Northwest  Level FlightAware Approximate
Sun 12:48:00 PM 18.1319 116.3007 333° Northwest  Level FlightAware Approximate
Sun 12:49:00 PM 18.2407 116.2424 333° Northwest  Level FlightAware Approximate
Sun 12:50:00 PM 18.3494 116.1841 333° Northwest  Level FlightAware Approximate
Sun 12:51:00 PM 18.4582 116.1257 333° Northwest  Level FlightAware Approximate
Sun 12:52:00 PM 18.5670 116.0673 333° Northwest  Level FlightAware Approximate
Sun 12:53:00 PM 18.6757 116.0087 333° Northwest  Level FlightAware Approximate
Sun 12:54:00 PM 18.7844 115.9501 333° Northwest  Level FlightAware Approximate
Sun 12:55:00 PM 18.8931 115.8914 333° Northwest  Level FlightAware Approximate
Sun 12:56:00 PM 19.0018 115.8327 333° Northwest  Level FlightAware Approximate
Sun 12:57:00 PM 19.1104 115.7738 333° Northwest  Level FlightAware Approximate
Sun 12:58:00 PM 19.2190 115.7149 333° Northwest  Level FlightAware Approximate
Sun 12:59:00 PM 19.3277 115.6559 333° Northwest  Level FlightAware Approximate
Sun 01:00:00 PM 19.4363 115.5968 333° Northwest  Level FlightAware Approximate
Sun 01:01:00 PM 19.5448 115.5377 333° Northwest  Level FlightAware Approximate
Sun 01:02:00 PM 19.6534 115.4785 333° Northwest  Level FlightAware Approximate
Sun 01:03:00 PM 19.7619 115.4192 333° Northwest  Level FlightAware Approximate
Sun 01:04:00 PM 19.8705 115.3598 333° Northwest  Level FlightAware Approximate
Sun 01:05:00 PM 19.9790 115.3003 333° Northwest  Level FlightAware Approximate
Sun 01:06:00 PM 20.0874 115.2407 333° Northwest  Level FlightAware Approximate
Sun 01:07:00 PM 20.1959 115.1811 333° Northwest  Level FlightAware Approximate
Sun 01:08:00 PM 20.3043 115.1214 333° Northwest  Level FlightAware Approximate
Sun 01:09:00 PM 20.4128 115.0616 333° Northwest  Level FlightAware Approximate
Sun 01:10:00 PM 20.5212 115.0017 333° Northwest  Level FlightAware Approximate
Sun 01:11:00 PM 20.6295 114.9417 333° Northwest  Level FlightAware Approximate
Sun 01:12:00 PM 20.7379 114.8816 333° Northwest  Level FlightAware Approximate
Sun 01:13:00 PM 20.8462 114.8215 333° Northwest  Level FlightAware Approximate
Sun 01:14:00 PM 20.9546 114.7612 333° Northwest  Level FlightAware Approximate
Sun 01:15:00 PM 21.0629 114.7009 333° Northwest  Level FlightAware Approximate
Sun 01:16:00 PM 21.1711 114.6405 333° Northwest  Level FlightAware Approximate
Sun 01:17:00 PM 21.2794 114.5800 332° Northwest  Level FlightAware Approximate
Sun 01:18:00 PM 21.3876 114.5194 332° Northwest  Level FlightAware Approximate
Sun 01:18:49 PM 21.1320 113.7350 332° Northwest 408 470 26,000  Level FlightAware ADS-B
Sun 01:19:00 PM 21.4958 114.4587 332° Northwest  Level FlightAware Approximate
Sun 01:19:29 PM 21.1770 113.6710 307° West 399 459 24,800  Level FlightAware ADS-B
Sun 01:20:14 PM 21.2210 113.6070 306° West 397 457 24,200 -340 Descending FlightAware ADS-B
Sun 01:21:15 PM 21.2770 113.5250 306° West 397 457 24,200  Level FlightAware ADS-B
Sun 01:21:49 PM 21.3080 113.4790 306° West 397 457 24,200  Level FlightAware ADS-B
Sun 01:22:38 PM 21.3530 113.4120 306° West 397 457 24,200  Level FlightAware ADS-B
Sun 01:23:13 PM 21.3850 113.3650 306° West 397 457 24,200 -1,466 Level FlightAware ADS-B
Sun 01:25:00 PM 21.5917 113.4382 18° North  Level Estimated
Sun 01:26:00 PM 21.7077 113.4793 18° North  Level Estimated
Sun 01:27:00 PM 21.8236 113.5205 18° North  Level Estimated
Sun 01:28:00 PM 21.9395 113.5617 18° North  Level Estimated
Sun 01:29:00 PM 22.0554 113.6031 18° North  Level Estimated
Sun 01:30:00 PM 22.1712 113.6444 18° North  Level Estimated
Sun 01:31:00 PM 22.2871 113.6859 18° North  Level Estimated
Sun 01:32:00 PM 22.4030 113.7274 18° North  Level Estimated
Sun 01:32:52 PM 22.1520 113.2430 18° North 310 357 9,200  Level FlightAware ADS-B
Sun 01:33:00 PM 22.5188 113.7690 18° North  Level Estimated
Sun 01:33:14 PM 22.1920 113.2370 352° North 304 350 9,100  Level FlightAware ADS-B
Sun 01:33:39 PM 22.2280 113.2300 350° North 301 346 9,100  Level FlightAware ADS-B
Sun 01:34:34 PM 22.2890 113.2200 351° North 299 344 9,100  Level FlightAware ADS-B
Sun 01:34:59 PM 22.3180 113.2150 351° North 299 344 9,100  Level FlightAware ADS-B
Sun 01:35:13 PM 22.3510 113.2630 53° Northeast 308 354 9,100  Level FlightAware ADS-B
Sun 01:35:41 PM 22.3860 113.2830 28° Northeast 307 353 9,100  Level FlightAware ADS-B
Sun 01:36:09 PM 22.4210 113.3050 30° Northeast 305 351 9,100  Level FlightAware ADS-B
Sun 01:36:37 PM 22.4560 113.3260 29° Northeast 305 351 9,100  Level FlightAware ADS-B
Sun 01:37:03 PM 22.4890 113.3460 29° Northeast 308 354 9,100 -750 Level FlightAware ADS-B
Sun 01:37:33 PM 22.5260 113.3680 29° Northeast 305 351 8,400 -1,071 Descending FlightAware ADS-B
Sun 01:37:59 PM 22.5580 113.3870 29° Northeast 302 348 8,100 -643 Descending FlightAware ADS-B
Sun 01:38:29 PM 22.5940 113.4090 29° Northeast 300 345 7,800 -964 Descending FlightAware ADS-B
Sun 01:38:55 PM 22.6260 113.4280 29° Northeast 296 341 7,200 -1,429 Descending FlightAware ADS-B
Sun 01:39:11 PM 22.6450 113.4390 28° Northeast 292 336 6,800 -1,174 Descending FlightAware ADS-B
Sun 01:39:41 PM 22.6800 113.4610 30° Northeast 283 326 6,300 -750 Descending FlightAware ADS-B
Sun 01:40:07 PM 22.7090 113.4780 28° Northeast 262 302 6,100 -273 Descending FlightAware ADS-B
Sun 01:40:25 PM 22.7270 113.4900 32° Northeast 242 278 6,100  Level FlightAware ADS-B
Sun 01:40:47 PM 22.7470 113.5020 29° Northeast 217 250 6,100  Level FlightAware ADS-B
Sun 01:41:10 PM 22.7660 113.5130 28° Northeast 215 247 6,100 -107 Level FlightAware ADS-B
Sun 01:41:43 PM 22.7960 113.5310 29° Northeast 215 247 6,000 -492 Descending FlightAware ADS-B
Sun 01:42:11 PM 22.8210 113.5460 29° Northeast 213 245 5,600 -964 Descending FlightAware ADS-B
Sun 01:42:39 PM 22.8450 113.5610 30° Northeast 213 245 5,100 -1,000 Descending FlightAware ADS-B
Sun 01:42:53 PM 22.8510 113.5740 63° Northeast 206 237 4,900 -1,091 Descending FlightAware ADS-B
Sun 01:43:23 PM 22.8630 113.6030 66° East 206 237 4,300 -1,241 Descending FlightAware ADS-B
Sun 01:43:51 PM 22.8730 113.6290 67° East 204 235 3,700 -1,256 Descending FlightAware ADS-B
Sun 01:44:06 PM 22.8720 113.6430 94° East 196 226 3,400 -1,556 Descending FlightAware ADS-B
Sun 01:44:18 PM 22.8670 113.6530 118° Southeast 192 221 3,000 -1,256 Descending FlightAware ADS-B
Sun 01:44:49 PM 22.8500 113.6760 129° Southeast 189 217 2,500 -421 Descending FlightAware ADS-B
Sun 01:45:15 PM 22.8300 113.6890 149° Southeast 187 215 2,600 113 Climbing FlightAware ADS-B
Sun 01:45:42 PM 22.8090 113.7000 154° Southeast 186 214 2,600  Level FlightAware ADS-B
Sun 01:45:58 PM 22.7970 113.7070 152° Southeast 186 214 2,600  Level FlightAware ADS-B
Sun 01:46:21 PM 22.7790 113.7160 155° Southeast 187 215 2,600 -261 Level FlightAware ADS-B
Sun 01:47:07 PM 22.7540 113.7300 153° Southeast 150 173 2,300 -632 Descending FlightAware ADS-B
Sun 01:47:37 PM 22.7310 113.7430 152° Southeast 139 160 1,800 -792 Descending FlightAware ADS-B
Sun 01:48:00 PM 22.7180 113.7500 154° Southeast 141 162 1,600 -720 Descending FlightAware ADS-B
Sun 01:48:27 PM 22.7010 113.7590 154° Southeast 145 167 1,200 -712 Descending FlightAware ADS-B
Sun 01:48:59 PM 22.6820 113.7700 152° Southeast 144 166 900 -700 Descending FlightAware ADS-B
Sun 01:49:27 PM 22.6650 113.7790 154° Southeast 144 166 500 -778 Descending FlightAware ADS-B
Sun 01:49:53 PM 22.6490 113.7880 153° Southeast 143 165 200 -692 Descending FlightAware ADS-B
Sun 01:50:23 PM 22.6370 113.7940 155° Southeast 48 55 -400 Descending FlightAware ADS-B
Sun 01:50:35 PM 22.6360 113.7950 137° Southeast 26 30  Level FlightAware ADS-B
Sun 01:50:50 PM 22.6350 113.7960 137° Southeast 28 32  Level FlightAware ADS-B
Sun 01:52:17 PM 22.6360 113.7980 62° Northeast 26 30  Level FlightAware ADS-B
Sun 01:52:41 PM 22.6360 113.7990 90° East 15 17  Level FlightAware ADS-B
Sun 01:52:58 PM 22.6370 113.8000 43° Northeast 17 20  Level FlightAware ADS-B
Sun 01:53:18 PM 22.6380 113.8020 62° Northeast 17 20  Level FlightAware ADS-B
Sun 01:54:00 PM 22.6390 113.8050 70° East 20 23  Level FlightAware ADS-B
Sun 01:54:27 PM 22.6400 113.8070 62° Northeast 31 36  Level FlightAware ADS-B
Sun 01:54:43 PM 22.6410 113.8080 43° Northeast 24 28  Level FlightAware ADS-B
Sun 01:57:00 PM 22.6395 113.8124 111° Southeast  Level Estimated
Sun 01:57:29 PM 22.6410 113.8090 111° Southeast 23 26  Level FlightAware ADS-B
Sun 01:57:58 PM 22.6420 113.8120 70° East 27 31  Level FlightAware ADS-B
Sun 01:58:05 PM 22.6400 113.8100 223° Southwest 19 22  Level FlightAware ADS-B
Sun 01:58:30 PM 22.6370 113.8120 148° Southeast 23 26  Level FlightAware ADS-B
Sun 01:58:50 PM 22.6360 113.8130 137° Southeast 18 21  Level FlightAware ADS-B
Sun 01:59:08 PM 22.6350 113.8140 137° Southeast 31 36  Level FlightAware ADS-B
Sun 02:00:33 PM 22.6340 113.8150 137° Southeast 17 20  Level FlightAware ADS-B
Sun 02:01:05 PM 22.6350 113.8160 43° Northeast 26 30  Level FlightAware ADS-B
Sun 02:01:30 PM 22.6360 113.8190 70° East 26 30  Level FlightAware ADS-B
Sun 02:04:00 PM 22.6395 113.8124 300° West  Level Estimated
Sun 02:05:00 PM 22.6395 113.8124 25° Northeast  Level Estimated
Sun 02:06:00 PM 22.6395 113.8124 25° Northeast  Level Estimated
Sun 02:07:00 PM 22.6395 113.8124 25° Northeast  Level Estimated
Sun 02:08:00 PM 22.6395 113.8124 25° Northeast  Level Estimated
Sun 02:09:00 PM 22.6395 113.8124 25° Northeast  Level Estimated
Sun 02:10:00 PM 22.6395 113.8124 25° Northeast  Level Estimated
Sun 02:11:00 PM 22.6395 113.8124 25° Northeast  Level Estimated
Sun 02:12:00 PM 22.6395 113.8124 25° Northeast  Level Estimated

Login

Don't have an account? Register now (free) for customized features, flight alerts, and more!